Time;durP1;ratioP1;P1;durP2;ratioP2;P2;SDS_P1;SDS_P2;PMS_P1;PMS_P2;Temp;Humidity;BMP_temperature;BMP_pressure;BME280_temperature;BME280_humidity;BME280_pressure;Samples;Min_cycle;Max_cycle;Signal;HPM_P1;HPM_P2
2022/04/01 00:02:25;;;;;;;109.28;98.18;;;3.10;91.80;;;;;;5033766;28;20053;-72
2022/04/01 00:04:54;;;;;;;109.38;98.28;;;3.10;91.80;;;;;;5035109;28;20129;-72
2022/04/01 00:07:20;;;;;;;110.68;99.38;;;3.10;91.90;;;;;;5034622;28;20153;-72
2022/04/01 00:09:47;;;;;;;109.75;98.57;;;3.00;91.80;;;;;;5035269;28;20046;-73
2022/04/01 00:12:14;;;;;;;110.43;99.20;;;3.00;91.80;;;;;;5033688;28;20057;-73
2022/04/01 00:14:41;;;;;;;109.97;98.72;;;3.00;92.00;;;;;;5033639;28;20054;-72
2022/04/01 00:17:08;;;;;;;110.85;99.57;;;3.00;92.00;;;;;;5033137;28;20042;-72
2022/04/01 00:19:35;;;;;;;111.43;99.93;;;3.00;92.00;;;;;;5034008;28;20807;-72
2022/04/01 00:22:04;;;;;;;110.55;98.97;;;3.00;92.00;;;;;;5034581;28;20045;-72
2022/04/01 00:24:32;;;;;;;110.15;98.85;;;3.00;92.00;;;;;;5033407;28;20050;-72
2022/04/01 00:26:59;;;;;;;111.22;99.65;;;3.00;92.00;;;;;;5034905;28;20060;-72
2022/04/01 00:29:26;;;;;;;109.78;98.57;;;3.00;91.90;;;;;;5033108;28;20054;-72
2022/04/01 00:31:59;;;;;;;109.38;98.18;;;3.00;91.90;;;;;;5033024;28;20116;-72
2022/04/01 00:34:26;;;;;;;109.50;98.40;;;3.00;92.00;;;;;;5033267;28;20137;-72
2022/04/01 00:36:56;;;;;;;109.88;98.68;;;3.00;92.00;;;;;;5016484;28;20061;-72
2022/04/01 00:39:26;;;;;;;108.68;97.70;;;3.00;92.00;;;;;;5034360;28;20085;-72
2022/04/01 00:41:54;;;;;;;109.72;98.63;;;3.00;91.90;;;;;;5016544;28;20105;-72
2022/04/01 00:44:23;;;;;;;109.78;98.57;;;3.00;92.00;;;;;;5033018;28;20049;-72
2022/04/01 00:46:53;;;;;;;108.55;97.40;;;3.00;92.00;;;;;;5016892;28;20046;-73
2022/04/01 00:49:21;;;;;;;109.00;97.93;;;2.90;92.00;;;;;;5016516;28;20056;-73
2022/04/01 00:51:50;;;;;;;109.63;98.47;;;3.00;91.90;;;;;;5016877;28;20049;-73
2022/04/01 00:54:18;;;;;;;109.18;98.28;;;2.90;91.90;;;;;;5032792;28;20050;-72
2022/04/01 00:56:46;;;;;;;108.60;97.70;;;2.90;91.90;;;;;;5016286;28;20045;-73
2022/04/01 00:59:13;;;;;;;108.90;98.03;;;2.90;91.90;;;;;;5016226;28;20781;-73
2022/04/01 01:01:43;;;;;;;109.80;98.70;;;2.90;91.90;;;;;;5032951;28;20046;-72
2022/04/01 01:04:12;;;;;;;108.75;97.75;;;2.90;91.90;;;;;;5034167;28;20145;-72
2022/04/01 01:06:45;;;;;;;108.82;97.82;;;2.90;91.80;;;;;;5032874;28;20120;-72
2022/04/01 01:09:14;;;;;;;108.55;97.75;;;2.90;91.80;;;;;;5032094;28;20134;-73
2022/04/01 01:11:41;;;;;;;108.25;97.35;;;2.90;91.90;;;;;;5032718;28;20108;-72
2022/04/01 01:14:13;;;;;;;108.55;97.75;;;2.90;91.70;;;;;;5032231;28;20108;-72
2022/04/01 01:16:42;;;;;;;110.43;99.38;;;2.90;91.60;;;;;;5032614;28;20116;-72
2022/04/01 01:19:11;;;;;;;106.95;96.05;;;2.90;91.50;;;;;;5015667;28;20149;-72
2022/04/01 01:21:39;;;;;;;107.55;96.47;;;2.80;91.40;;;;;;5032161;28;20046;-72
2022/04/01 01:24:11;;;;;;;107.65;96.90;;;2.80;91.50;;;;;;5016132;28;20046;-72
2022/04/01 01:26:40;;;;;;;107.80;97.07;;;2.80;91.40;;;;;;5015842;28;20045;-72
2022/04/01 01:29:07;;;;;;;108.28;97.47;;;2.90;91.30;;;;;;5031243;28;20050;-72
2022/04/01 01:31:35;;;;;;;108.88;97.88;;;2.90;91.20;;;;;;5032303;28;20077;-72
2022/04/01 01:34:02;;;;;;;108.40;97.45;;;2.90;91.00;;;;;;5033708;28;20050;-72
2022/04/01 01:36:30;;;;;;;109.35;97.95;;;2.90;91.00;;;;;;5032561;28;20044;-72
2022/04/01 01:38:58;;;;;;;110.72;99.30;;;2.90;90.90;;;;;;5015684;28;20125;-72
2022/04/01 01:41:25;;;;;;;110.70;99.10;;;2.90;90.80;;;;;;5032300;28;20045;-72
2022/04/01 01:43:57;;;;;;;110.82;99.38;;;2.90;90.70;;;;;;5032224;28;20140;-73
2022/04/01 01:46:24;;;;;;;111.35;99.95;;;3.00;90.70;;;;;;5032399;28;20076;-72
2022/04/01 01:48:51;;;;;;;111.00;99.38;;;3.00;90.80;;;;;;5015517;28;20137;-73
2022/04/01 01:54:50;;;;;;;108.43;97.00;;;2.90;90.40;;;;;;5034030;28;20049;-73
2022/04/01 01:57:20;;;;;;;110.18;98.78;;;2.90;90.30;;;;;;5031864;28;20109;-72
2022/04/01 01:59:49;;;;;;;111.72;100.13;;;2.90;90.30;;;;;;5032161;28;20077;-72
2022/04/01 02:02:17;;;;;;;109.93;98.72;;;2.90;90.40;;;;;;5015407;28;20430;-72
2022/04/01 02:04:45;;;;;;;111.32;99.85;;;3.00;90.40;;;;;;5031842;28;20054;-72
2022/04/01 02:07:12;;;;;;;111.28;99.88;;;3.00;90.10;;;;;;5031566;28;20128;-72
2022/04/01 02:09:43;;;;;;;109.03;97.95;;;3.00;89.80;;;;;;5015413;28;20468;-73
2022/04/01 02:12:10;;;;;;;108.57;97.35;;;3.00;89.90;;;;;;5015403;28;20050;-72
2022/04/01 02:14:37;;;;;;;108.35;97.43;;;3.00;90.00;;;;;;5015189;28;20081;-72
2022/04/01 02:17:06;;;;;;;111.20;99.85;;;3.00;90.40;;;;;;5033130;28;20049;-72
2022/04/01 02:19:33;;;;;;;108.85;97.65;;;3.00;90.00;;;;;;5033054;28;20133;-72
2022/04/01 02:22:01;;;;;;;109.53;98.32;;;3.00;89.90;;;;;;5031921;28;20058;-72
2022/04/01 02:24:31;;;;;;;109.63;98.32;;;3.00;89.90;;;;;;5015262;28;20090;-72
2022/04/01 02:26:59;;;;;;;110.43;99.13;;;2.90;89.80;;;;;;5015220;28;20057;-73
2022/04/01 02:29:28;;;;;;;109.22;98.13;;;2.90;89.80;;;;;;5015699;28;20081;-72
2022/04/01 02:32:31;;;;;;;109.82;98.32;;;2.90;90.00;;;;;;4994083;28;20047;-73
2022/04/01 02:35:22;;;;;;;108.75;97.55;;;2.90;90.10;;;;;;5020530;28;20056;-72
2022/04/01 02:37:50;;;;;;;110.07;98.57;;;2.90;90.30;;;;;;5014799;28;20416;-72
2022/04/01 02:40:17;;;;;;;109.13;97.90;;;2.90;90.30;;;;;;5015633;28;20046;-73
2022/04/01 02:42:44;;;;;;;109.82;98.53;;;2.90;90.50;;;;;;5034816;28;20132;-72
2022/04/01 02:45:18;;;;;;;108.95;97.88;;;2.90;90.70;;;;;;5018178;28;20049;-72
2022/04/01 02:47:46;;;;;;;109.30;98.13;;;2.90;90.90;;;;;;5034476;28;20053;-73
2022/04/01 02:50:13;;;;;;;110.90;99.35;;;2.90;91.00;;;;;;5034864;28;20046;-72
2022/04/01 02:52:40;;;;;;;110.20;98.88;;;3.00;91.00;;;;;;5018074;28;20042;-72
2022/04/01 02:55:08;;;;;;;111.90;100.65;;;2.90;91.00;;;;;;5036027;28;20053;-72
2022/04/01 02:57:36;;;;;;;110.75;99.43;;;2.90;91.20;;;;;;5034283;28;20050;-72
2022/04/01 03:00:09;;;;;;;;;;;2.80;91.20;;;;;;5018689;28;20052;-72
2022/04/01 03:02:37;;;;;;;109.28;97.93;;;2.80;91.40;;;;;;5034615;28;20399;-72
2022/04/01 03:05:07;;;;;;;109.88;98.57;;;2.70;91.30;;;;;;5018179;28;20538;-72
2022/04/01 03:07:34;;;;;;;110.13;98.63;;;2.80;91.30;;;;;;5017873;28;20132;-72
2022/04/01 03:10:02;;;;;;;111.03;99.50;;;2.80;91.40;;;;;;5034848;28;20058;-72
2022/04/01 03:12:33;;;;;;;109.15;97.57;;;2.80;91.30;;;;;;5018515;28;20072;-72
2022/04/01 03:15:20;;;;;;;109.40;98.13;;;2.80;91.30;;;;;;5034970;28;20061;-73
2022/04/01 03:18:09;;;;;;;110.55;99.22;;;2.80;91.20;;;;;;5035192;28;20077;-73
2022/04/01 03:20:45;;;;;;;110.82;98.93;;;2.80;91.10;;;;;;5018230;28;20056;-72
2022/04/01 03:23:12;;;;;;;119.55;106.85;;;2.80;91.00;;;;;;5066985;22;20050;-73
2022/04/01 03:25:42;;;;;;;109.30;98.10;;;2.80;90.90;;;;;;5036011;28;20052;-72
2022/04/01 03:28:25;;;;;;;107.90;96.85;;;2.70;90.90;;;;;;5037622;28;20045;-72
2022/04/01 03:30:57;;;;;;;109.13;97.43;;;2.70;90.90;;;;;;5055045;28;20053;-73
2022/04/01 03:33:30;;;;;;;109.55;98.32;;;2.70;91.00;;;;;;5038221;28;20064;-72
2022/04/01 03:35:59;;;;;;;109.50;98.18;;;2.70;91.00;;;;;;5037269;28;20053;-72
2022/04/01 03:38:30;;;;;;;109.50;98.38;;;2.70;90.80;;;;;;5053840;28;20140;-73
2022/04/01 03:40:59;;;;;;;110.55;99.15;;;2.80;90.90;;;;;;5053969;28;20136;-73
2022/04/01 03:43:28;;;;;;;109.32;97.93;;;2.80;90.80;;;;;;5036797;28;20077;-72
2022/04/01 03:45:59;;;;;;;109.35;98.20;;;2.90;90.80;;;;;;5037369;28;20139;-72
2022/04/01 03:48:31;;;;;;;110.07;98.57;;;2.90;90.70;;;;;;5036978;28;20180;-72
2022/04/01 03:50:59;;;;;;;108.28;97.22;;;2.90;90.70;;;;;;5037552;28;20049;-72
2022/04/01 03:53:32;;;;;;;109.05;98.03;;;2.90;90.60;;;;;;5052989;28;20511;-72
2022/04/01 03:56:06;;;;;;;108.82;97.82;;;2.90;90.20;;;;;;5037180;28;20046;-72
2022/04/01 03:59:01;;;;;;;108.88;97.78;;;2.90;90.30;;;;;;5052640;28;20063;-73
2022/04/01 04:01:28;;;;;;;108.15;97.15;;;2.90;90.10;;;;;;5055208;28;20050;-72
2022/04/01 04:03:57;;;;;;;109.57;98.38;;;2.90;90.10;;;;;;5053661;28;20053;-73
2022/04/01 04:06:26;;;;;;;107.53;96.65;;;2.90;90.00;;;;;;5037108;28;20049;-72
2022/04/01 04:08:57;;;;;;;108.93;98.03;;;2.90;90.00;;;;;;5036785;28;20407;-72
2022/04/01 04:11:25;;;;;;;107.93;96.90;;;2.90;89.60;;;;;;5037274;28;20100;-73
2022/04/01 04:14:18;;;;;;;109.63;98.28;;;2.90;89.70;;;;;;5053553;28;20046;-72
2022/04/01 04:16:46;;;;;;;110.10;98.78;;;2.90;88.90;;;;;;5052926;28;20494;-72
2022/04/01 04:19:19;;;;;;;109.38;98.18;;;2.90;89.10;;;;;;5036402;28;20056;-72
2022/04/01 04:21:56;;;;;;;108.88;97.78;;;3.00;89.10;;;;;;5036701;28;20099;-72
2022/04/01 04:24:30;;;;;;;110.95;99.28;;;3.00;88.50;;;;;;5036249;28;20048;-73
2022/04/01 04:27:03;;;;;;;110.85;99.47;;;3.00;88.20;;;;;;5053311;28;20049;-73
2022/04/01 04:29:38;;;;;;;111.18;99.28;;;3.00;87.70;;;;;;5036666;28;20046;-72
2022/04/01 04:32:28;;;;;;;109.13;97.93;;;3.00;87.60;;;;;;5036691;28;20050;-72
2022/04/01 04:34:57;;;;;;;109.53;98.13;;;3.00;87.30;;;;;;5053169;28;20089;-72
2022/04/01 04:37:30;;;;;;;109.80;97.88;;;3.00;87.20;;;;;;5036267;28;20049;-72
2022/04/01 04:39:58;;;;;;;111.78;100.15;;;3.00;87.50;;;;;;5036681;28;20049;-72
2022/04/01 04:42:27;;;;;;;109.05;97.90;;;3.00;87.40;;;;;;5036365;28;20862;-73
2022/04/01 04:44:55;;;;;;;110.90;99.18;;;3.00;87.20;;;;;;5036328;28;20050;-72
2022/04/01 04:47:25;;;;;;;109.53;98.38;;;3.00;86.80;;;;;;5052801;28;20144;-72
2022/04/01 04:49:55;;;;;;;109.35;98.05;;;3.00;86.80;;;;;;5052959;28;20053;-72
2022/04/01 04:52:26;;;;;;;107.85;96.60;;;3.00;86.80;;;;;;5036920;28;20050;-73
2022/04/01 04:54:56;;;;;;;110.50;99.05;;;3.00;87.00;;;;;;5055178;28;20053;-73
2022/04/01 04:57:23;;;;;;;111.57;100.10;;;3.00;87.00;;;;;;5053327;28;20096;-72
2022/04/01 04:59:52;;;;;;;112.82;100.85;;;3.10;87.30;;;;;;5069065;28;20491;-72
2022/04/01 05:02:32;;;;;;;112.85;101.40;;;3.10;87.20;;;;;;5051698;28;20061;-72
2022/04/01 05:05:04;;;;;;;107.43;96.32;;;3.20;87.30;;;;;;5026935;28;20458;-72
2022/04/01 05:08:07;;;;;;;111.50;100.10;;;3.10;87.20;;;;;;5031378;28;20141;-72
2022/04/01 05:11:06;;;;;;;108.55;97.55;;;3.20;87.20;;;;;;5033369;28;20179;-73
2022/04/01 05:13:45;;;;;;;108.00;96.97;;;3.20;87.40;;;;;;5033691;28;20046;-73
2022/04/01 05:16:39;;;;;;;108.20;97.40;;;3.20;87.40;;;;;;5046780;28;20049;-73
2022/04/01 05:19:10;;;;;;;107.30;96.60;;;3.20;87.30;;;;;;5047300;28;20136;-73
2022/04/01 05:21:57;;;;;;;107.60;96.75;;;3.20;87.30;;;;;;5041649;28;20053;-73
2022/04/01 05:24:32;;;;;;;108.95;97.93;;;3.20;87.30;;;;;;5037334;28;20053;-73
2022/04/01 05:27:05;;;;;;;108.47;97.57;;;3.20;87.20;;;;;;5043146;28;20100;-73
2022/04/01 05:30:01;;;;;;;109.65;98.65;;;3.20;87.10;;;;;;5030841;28;20483;-73
2022/04/01 05:32:32;;;;;;;108.60;97.60;;;3.20;87.00;;;;;;5042805;28;20057;-73
2022/04/01 05:35:01;;;;;;;107.68;96.97;;;3.30;86.90;;;;;;5027003;28;20487;-73
2022/04/01 05:37:31;;;;;;;106.93;96.25;;;3.30;86.90;;;;;;5044307;28;20066;-73
2022/04/01 05:40:05;;;;;;;108.30;97.60;;;3.30;86.70;;;;;;5020286;28;20042;-73
2022/04/01 05:42:34;;;;;;;108.53;97.60;;;3.30;86.80;;;;;;5026123;28;20081;-73
2022/04/01 05:45:29;;;;;;;108.88;97.63;;;3.30;86.70;;;;;;5046090;28;20048;-73
2022/04/01 05:47:58;;;;;;;108.00;97.20;;;3.30;86.70;;;;;;5027506;28;20052;-73
2022/04/01 05:50:28;;;;;;;107.85;97.15;;;3.30;86.50;;;;;;5021380;28;20057;-73
2022/04/01 05:52:55;;;;;;;107.25;96.55;;;3.40;86.40;;;;;;5038360;28;20053;-73
2022/04/01 05:55:25;;;;;;;106.50;95.95;;;3.40;86.60;;;;;;5029008;28;20045;-73
2022/04/01 05:57:55;;;;;;;108.20;97.13;;;3.40;86.30;;;;;;5041961;28;20045;-73
2022/04/01 06:00:23;;;;;;;111.30;99.97;;;3.40;86.10;;;;;;5023870;28;20049;-73
2022/04/01 06:03:30;;;;;;;105.85;95.25;;;3.40;86.00;;;;;;5040557;28;20562;-73
2022/04/01 06:06:04;;;;;;;107.35;96.60;;;3.40;86.00;;;;;;5020768;28;20052;-73
2022/04/01 06:08:48;;;;;;;109.93;98.95;;;3.40;85.90;;;;;;5040540;28;20443;-73
2022/04/01 06:11:39;;;;;;;107.95;97.15;;;3.40;85.90;;;;;;5042603;28;20065;-74
2022/04/01 06:14:46;;;;;;;108.80;97.90;;;3.40;86.10;;;;;;5047097;28;20073;-73
2022/04/01 06:17:43;;;;;;;108.85;97.88;;;3.40;85.90;;;;;;5052025;28;20514;-73
2022/04/01 06:20:14;;;;;;;112.15;101.00;;;3.40;86.00;;;;;;5051338;28;20538;-73
2022/04/01 06:22:49;;;;;;;108.18;97.38;;;3.40;86.10;;;;;;5054321;28;20537;-73
2022/04/01 06:25:20;;;;;;;108.60;97.70;;;3.50;86.00;;;;;;5035590;28;20140;-73
2022/04/01 06:27:50;;;;;;;107.82;96.93;;;3.40;85.90;;;;;;5037505;28;20053;-73
2022/04/01 06:30:21;;;;;;;108.53;97.57;;;3.40;85.90;;;;;;5054175;28;20054;-73
2022/04/01 06:33:04;;;;;;;107.60;96.72;;;3.50;85.70;;;;;;5037304;28;20140;-73
2022/04/01 06:35:59;;;;;;;107.82;96.93;;;3.50;85.80;;;;;;5045756;28;20045;-73
2022/04/01 06:38:39;;;;;;;108.07;97.13;;;3.50;86.00;;;;;;5033968;28;20128;-74
2022/04/01 06:41:08;;;;;;;109.95;98.82;;;3.50;86.00;;;;;;5042781;28;20041;-73
2022/04/01 06:43:45;;;;;;;109.60;98.57;;;3.50;85.90;;;;;;5048527;28;20065;-73
2022/04/01 06:46:34;;;;;;;107.65;96.97;;;3.60;85.80;;;;;;5007472;28;20054;-73
2022/04/01 06:49:10;;;;;;;109.05;98.15;;;3.60;85.80;;;;;;5026055;28;20201;-73
2022/04/01 06:51:56;;;;;;;108.85;97.75;;;3.60;85.70;;;;;;5045729;28;20045;-74
2022/04/01 06:54:26;;;;;;;107.45;96.70;;;3.70;85.60;;;;;;5052306;28;20149;-73
2022/04/01 06:57:12;;;;;;;111.30;100.05;;;3.70;85.50;;;;;;5043672;28;20057;-73
2022/04/01 07:00:03;;;;;;;108.32;97.47;;;3.70;85.50;;;;;;5036431;28;20061;-73
2022/04/01 07:02:32;;;;;;;108.78;97.88;;;3.70;85.80;;;;;;5042686;28;20654;-74
2022/04/01 07:04:58;;;;;;;107.22;96.47;;;3.80;85.70;;;;;;5043502;28;20052;-73
2022/04/01 07:07:25;;;;;;;108.63;97.63;;;3.80;85.50;;;;;;5044005;28;20053;-73
2022/04/01 07:09:52;;;;;;;108.45;97.57;;;3.90;85.60;;;;;;5044755;28;20041;-73
2022/04/01 07:12:20;;;;;;;107.75;96.90;;;3.90;85.60;;;;;;5043423;28;20510;-73
2022/04/01 07:14:46;;;;;;;109.20;98.30;;;3.90;85.90;;;;;;5046037;28;20054;-73
2022/04/01 07:17:13;;;;;;;109.70;98.80;;;3.90;85.70;;;;;;5042491;28;20630;-73
2022/04/01 07:19:41;;;;;;;107.43;96.72;;;3.90;85.90;;;;;;5050936;28;20510;-73
2022/04/01 07:22:09;;;;;;;108.45;97.75;;;3.90;85.70;;;;;;5052981;28;20046;-73
2022/04/01 07:24:36;;;;;;;109.40;98.65;;;4.00;85.90;;;;;;5053053;28;20478;-73
2022/04/01 07:27:03;;;;;;;109.38;98.68;;;4.00;85.90;;;;;;5052165;28;20053;-73
2022/04/01 07:29:30;;;;;;;;;;;4.00;85.60;;;;;;5053903;28;20128;-72
2022/04/01 07:34:55;;;;;;;108.72;97.82;;;4.00;85.10;;;;;;4975458;28;20054;-73
2022/04/01 07:37:23;;;;;;;107.95;97.22;;;4.00;84.90;;;;;;5018787;28;20064;-72
2022/04/01 07:39:51;;;;;;;107.45;96.72;;;4.00;85.30;;;;;;5041545;28;20048;-73
2022/04/01 07:42:18;;;;;;;;;;;4.00;85.30;;;;;;5044258;28;20050;-73
2022/04/01 07:44:45;;;;;;;107.85;96.85;;;4.10;85.20;;;;;;5040503;28;19932;-73
2022/04/01 07:47:14;;;;;;;110.32;99.28;;;4.10;85.10;;;;;;5040901;28;20057;-74
2022/04/01 07:49:41;;;;;;;108.40;97.60;;;4.10;84.70;;;;;;5048312;28;20103;-73
2022/04/01 07:52:10;;;;;;;107.57;96.78;;;4.10;84.70;;;;;;5050510;28;20049;-72
2022/04/01 07:54:38;;;;;;;107.93;97.18;;;4.10;84.70;;;;;;5050985;28;20100;-72
2022/04/01 07:57:06;;;;;;;110.70;99.75;;;4.10;85.00;;;;;;5053914;28;20055;-73
2022/04/01 07:59:34;;;;;;;110.35;99.45;;;4.10;84.80;;;;;;5052464;28;20136;-72
2022/04/01 08:02:01;;;;;;;110.50;99.25;;;4.00;84.90;;;;;;5047499;28;20057;-73
2022/04/01 08:04:28;;;;;;;;;;;4.00;84.60;;;;;;5062047;22;20571;-73
2022/04/01 08:06:55;;;;;;;107.95;97.05;;;3.90;84.30;;;;;;5022498;28;19952;-73
2022/04/01 08:09:24;;;;;;;107.05;96.35;;;4.00;84.60;;;;;;5025148;28;20063;-73
2022/04/01 08:11:52;;;;;;;107.53;96.70;;;3.90;84.30;;;;;;5024341;28;20843;-73
2022/04/01 08:14:19;;;;;;;107.47;96.80;;;3.90;84.60;;;;;;5022943;28;20057;-73
2022/04/01 08:16:46;;;;;;;108.82;97.97;;;3.90;84.40;;;;;;5030800;28;20138;-74
2022/04/01 08:19:13;;;;;;;110.57;99.55;;;4.00;84.10;;;;;;5026713;28;20049;-73
2022/04/01 08:21:41;;;;;;;109.20;98.28;;;3.90;83.60;;;;;;5048099;28;20045;-72
2022/04/01 08:24:09;;;;;;;109.35;98.55;;;3.90;83.60;;;;;;5034608;28;20053;-73
2022/04/01 08:26:37;;;;;;;108.68;97.95;;;3.90;84.20;;;;;;5032570;28;20045;-73
2022/04/01 08:29:04;;;;;;;109.90;98.85;;;3.90;84.60;;;;;;5033117;28;20050;-73
2022/04/01 08:31:33;;;;;;;109.40;98.43;;;3.90;84.70;;;;;;5033447;28;20056;-73
2022/04/01 08:34:00;;;;;;;109.20;98.20;;;3.90;85.10;;;;;;5035193;28;20064;-73
2022/04/01 08:36:28;;;;;;;110.18;98.97;;;3.90;84.70;;;;;;5026589;28;20129;-73
2022/04/01 08:38:55;;;;;;;111.63;100.47;;;4.00;84.80;;;;;;5031897;28;20086;-73
2022/04/01 08:41:23;;;;;;;109.90;99.00;;;4.00;84.50;;;;;;5032823;28;20106;-73
2022/04/01 08:43:53;;;;;;;110.90;99.80;;;4.00;84.70;;;;;;5029460;28;20053;-73
2022/04/01 08:46:23;;;;;;;112.00;101.00;;;4.10;84.40;;;;;;5031364;28;20108;-73
2022/04/01 08:48:52;;;;;;;111.00;99.80;;;4.10;84.10;;;;;;5028677;28;20054;-73
2022/04/01 08:51:19;;;;;;;110.65;99.57;;;4.20;84.10;;;;;;5029080;28;20057;-73
2022/04/01 08:53:46;;;;;;;111.85;100.80;;;4.20;83.90;;;;;;5031877;28;20140;-73
2022/04/01 08:56:15;;;;;;;111.50;100.43;;;4.20;83.90;;;;;;5026738;28;20053;-73
2022/04/01 08:58:42;;;;;;;109.70;98.90;;;4.20;84.00;;;;;;5031829;28;20065;-73
2022/04/01 09:01:11;;;;;;;111.28;100.18;;;4.30;84.10;;;;;;5031680;28;20053;-73
2022/04/01 09:03:39;;;;;;;113.22;101.93;;;4.30;84.40;;;;;;5028826;28;20054;-73
2022/04/01 09:06:07;;;;;;;110.95;99.95;;;4.30;84.40;;;;;;5031784;28;20057;-73
2022/04/01 09:08:37;;;;;;;111.53;100.50;;;4.30;84.50;;;;;;5032696;28;20042;-73
2022/04/01 09:11:06;;;;;;;111.75;100.70;;;4.40;84.60;;;;;;5015464;28;20046;-73
2022/04/01 09:13:34;;;;;;;112.13;101.22;;;4.40;84.30;;;;;;5029645;28;20077;-74
2022/04/01 09:16:02;;;;;;;111.03;100.07;;;4.40;83.90;;;;;;5032835;28;20084;-74
2022/04/01 09:18:40;;;;;;;112.10;100.90;;;4.40;84.00;;;;;;5022809;28;20049;-73
2022/04/01 09:21:08;;;;;;;110.45;99.55;;;4.40;84.20;;;;;;5029892;28;20042;-74
2022/04/01 09:23:36;;;;;;;110.07;99.32;;;4.40;84.50;;;;;;5029685;28;20050;-73
2022/04/01 09:26:03;;;;;;;111.68;100.72;;;4.40;84.90;;;;;;5031534;28;20054;-73
2022/04/01 09:28:31;;;;;;;111.25;100.38;;;4.40;84.80;;;;;;5032583;28;20057;-73
2022/04/01 09:31:00;;;;;;;112.47;101.47;;;4.40;85.10;;;;;;5028697;28;20050;-73
2022/04/01 09:33:47;;;;;;;111.32;99.95;;;4.40;85.30;;;;;;5031365;28;20060;-73
2022/04/01 09:36:14;;;;;;;;;;;4.40;85.70;;;;;;5026776;28;20050;-73
2022/04/01 09:38:55;;;;;;;112.50;101.20;;;4.40;87.30;;;;;;5021981;28;19925;-73
2022/04/01 09:41:29;;;;;;;111.97;100.78;;;4.40;86.60;;;;;;5025820;28;20537;-73
2022/04/01 09:44:07;;;;;;;112.35;101.25;;;4.40;86.80;;;;;;5030143;28;20543;-73
2022/04/01 09:46:34;;;;;;;111.15;100.25;;;4.40;87.30;;;;;;5025532;28;20053;-73
2022/04/01 09:49:02;;;;;;;;;;;4.40;88.00;;;;;;5021821;28;20061;-73
2022/04/01 09:51:33;;;;;;;111.07;99.70;;;4.40;88.00;;;;;;5023847;28;19925;-73
2022/04/01 09:54:04;;;;;;;110.70;99.72;;;4.40;87.50;;;;;;5021690;28;20057;-73
2022/04/01 09:56:43;;;;;;;111.47;100.45;;;4.40;87.80;;;;;;5027463;28;20058;-72
2022/04/01 09:59:12;;;;;;;112.25;101.05;;;4.40;87.70;;;;;;5017342;28;20572;-73
2022/04/01 10:01:40;;;;;;;112.15;101.05;;;4.40;87.50;;;;;;5024628;28;20046;-73
2022/04/01 10:04:09;;;;;;;110.78;99.78;;;4.40;87.70;;;;;;5024310;28;20794;-73
2022/04/01 10:06:37;;;;;;;112.15;101.03;;;4.40;88.30;;;;;;5021463;28;20054;-74
2022/04/01 10:09:07;;;;;;;113.35;102.05;;;4.40;88.40;;;;;;5028880;28;20506;-74
2022/04/01 10:11:35;;;;;;;111.70;100.60;;;4.40;88.50;;;;;;5026926;28;20512;-73
2022/04/01 10:14:06;;;;;;;112.38;101.07;;;4.40;88.60;;;;;;5025661;28;20389;-74
2022/04/01 10:16:35;;;;;;;112.60;101.40;;;4.30;88.70;;;;;;5030808;28;20046;-74
2022/04/01 10:19:14;;;;;;;113.28;102.13;;;4.30;88.90;;;;;;5032393;28;20515;-77
2022/04/01 10:21:43;;;;;;;113.90;102.82;;;4.30;89.00;;;;;;5031395;28;20050;-73
2022/04/01 10:24:23;;;;;;;111.78;100.78;;;4.40;88.30;;;;;;5012498;28;20064;-73
2022/04/01 10:27:06;;;;;;;113.88;102.68;;;4.40;88.10;;;;;;5031513;28;20054;-73
2022/04/01 10:29:34;;;;;;;112.57;101.47;;;4.40;88.00;;;;;;5030792;28;20050;-73
2022/04/01 10:32:23;;;;;;;112.97;101.88;;;4.40;88.10;;;;;;5030205;28;20057;-78
2022/04/01 10:34:53;;;;;;;111.95;100.82;;;4.30;87.80;;;;;;5032657;28;20781;-73
2022/04/01 10:37:23;;;;;;;114.05;102.78;;;4.30;87.80;;;;;;5030295;28;20054;-73
2022/04/01 10:39:51;;;;;;;113.57;102.47;;;4.30;87.40;;;;;;5030762;28;20065;-75
2022/04/01 10:42:19;;;;;;;111.53;100.38;;;4.30;87.30;;;;;;5030829;28;20052;-73
2022/04/01 10:44:46;;;;;;;;;;;4.30;87.80;;;;;;5031693;28;20153;-73
2022/04/01 10:47:13;;;;;;;110.60;99.32;;;4.30;88.40;;;;;;5032596;28;20391;-75
2022/04/01 10:52:27;;;;;;;111.57;100.57;;;4.50;88.80;;;;;;5029417;28;20050;-74
2022/04/01 10:55:12;;;;;;;110.80;99.78;;;4.50;88.70;;;;;;5031068;28;20058;-74
2022/04/01 10:57:44;;;;;;;110.05;99.25;;;4.50;89.00;;;;;;5028502;28;20137;-75
2022/04/01 11:00:15;;;;;;;110.90;99.90;;;4.50;88.80;;;;;;5014236;28;20100;-73
2022/04/01 11:02:43;;;;;;;109.30;98.60;;;4.60;89.60;;;;;;5014059;28;20054;-73
2022/04/01 11:05:30;;;;;;;110.20;99.38;;;4.60;90.00;;;;;;5034507;28;20057;-73
2022/04/01 11:08:23;;;;;;;108.63;97.93;;;4.70;90.20;;;;;;5032170;28;20038;-73
2022/04/01 11:11:12;;;;;;;108.50;97.88;;;4.70;90.30;;;;;;5030811;28;20046;-84
2022/04/01 11:13:40;;;;;;;110.45;99.45;;;4.80;90.60;;;;;;5025734;28;20046;-73
2022/04/01 11:16:19;;;;;;;111.72;100.85;;;4.80;90.80;;;;;;5033930;28;20050;-73
2022/04/01 11:19:14;;;;;;;110.18;99.40;;;4.80;90.70;;;;;;5031385;28;20078;-73
2022/04/01 11:21:42;;;;;;;109.63;99.00;;;4.90;90.70;;;;;;5032581;28;20046;-73
2022/04/01 11:24:33;;;;;;;111.53;100.28;;;4.90;90.90;;;;;;5032960;28;20060;-73
2022/04/01 11:27:07;;;;;;;111.63;100.90;;;4.90;90.90;;;;;;5019747;28;20132;-73
2022/04/01 11:29:34;;;;;;;110.50;99.60;;;4.90;91.00;;;;;;5033474;28;20062;-72
2022/04/01 11:32:08;;;;;;;109.82;99.07;;;5.00;90.90;;;;;;5034005;28;20181;-73
2022/04/01 11:34:57;;;;;;;110.65;99.38;;;5.10;90.90;;;;;;5033059;28;20050;-72
2022/04/01 11:37:25;;;;;;;111.05;100.32;;;5.10;90.80;;;;;;5031403;28;20054;-72
2022/04/01 11:39:54;;;;;;;111.72;100.75;;;5.10;90.80;;;;;;5032574;28;20050;-73
2022/04/01 11:42:21;;;;;;;109.80;99.18;;;5.10;91.00;;;;;;5033426;28;20523;-72
2022/04/01 11:44:58;;;;;;;112.40;101.50;;;5.20;90.90;;;;;;5032756;28;20056;-73
2022/04/01 11:47:32;;;;;;;110.35;99.60;;;5.20;90.90;;;;;;5032508;28;21702;-73
2022/04/01 11:50:07;;;;;;;108.80;98.28;;;5.20;90.80;;;;;;5032963;28;20057;-73
2022/04/01 11:52:38;;;;;;;110.38;99.68;;;5.30;90.50;;;;;;5034622;28;20058;-73
2022/04/01 11:55:13;;;;;;;110.95;100.22;;;5.30;90.70;;;;;;5032444;28;20077;-73
2022/04/01 11:57:41;;;;;;;110.28;99.68;;;5.40;90.50;;;;;;5031570;28;20151;-73
2022/04/01 12:00:12;;;;;;;109.57;99.03;;;5.40;90.20;;;;;;5033842;28;20057;-73
2022/04/01 12:02:41;;;;;;;109.03;98.53;;;5.40;89.60;;;;;;5029684;28;20777;-72
2022/04/01 12:05:09;;;;;;;110.55;99.90;;;5.40;88.90;;;;;;5033535;28;20144;-75
2022/04/01 12:10:22;;;;;;;108.93;98.40;;;5.50;88.00;;;;;;5005241;28;20141;-74
2022/04/01 12:12:56;;;;;;;110.88;100.07;;;5.50;87.40;;;;;;5015241;28;20050;-73
2022/04/01 12:15:34;;;;;;;110.38;99.72;;;5.50;86.80;;;;;;5030902;28;20048;-73
2022/04/01 12:18:01;;;;;;;110.43;99.93;;;5.50;86.70;;;;;;5025223;28;20065;-73
2022/04/01 12:20:28;;;;;;;110.13;99.53;;;5.50;87.20;;;;;;5021206;28;20054;-73
2022/04/01 12:22:56;;;;;;;;;;;5.50;87.00;;;;;;5032548;28;20109;-75
2022/04/01 12:25:24;;;;;;;109.85;99.10;;;5.50;86.60;;;;;;5032979;28;19935;-75
2022/04/01 12:27:55;;;;;;;108.47;97.97;;;5.50;86.50;;;;;;5016092;28;20060;-76
2022/04/01 12:30:32;;;;;;;107.50;97.00;;;5.40;86.10;;;;;;5031500;28;20576;-76
2022/04/01 12:33:01;;;;;;;109.60;98.90;;;5.50;86.00;;;;;;5033269;28;20064;-75
2022/04/01 12:35:28;;;;;;;110.13;99.40;;;5.50;86.60;;;;;;5031752;28;20050;-77
2022/04/01 12:38:16;;;;;;;108.97;98.38;;;5.50;87.00;;;;;;5030158;28;20057;-77
2022/04/01 12:40:53;;;;;;;109.65;98.95;;;5.50;87.20;;;;;;5025313;28;20582;-76
2022/04/01 12:43:37;;;;;;;109.85;99.13;;;5.50;87.10;;;;;;5030256;28;20132;-76
2022/04/01 12:46:06;;;;;;;109.53;98.93;;;5.50;87.40;;;;;;5023696;28;20129;-75
2022/04/01 12:48:47;;;;;;;111.05;100.35;;;5.60;87.60;;;;;;5026800;28;20046;-75
2022/04/01 12:51:22;;;;;;;108.80;98.30;;;5.60;87.90;;;;;;5033669;28;20133;-74
2022/04/01 12:53:57;;;;;;;113.13;102.32;;;5.60;88.50;;;;;;5030977;28;20046;-74
2022/04/01 12:56:29;;;;;;;111.28;100.47;;;5.70;88.30;;;;;;5031478;28;20480;-75
2022/04/01 12:58:58;;;;;;;109.50;99.03;;;5.70;88.30;;;;;;5031359;28;20141;-74
2022/04/01 13:01:26;;;;;;;110.32;99.82;;;5.80;88.10;;;;;;5032972;28;20056;-75
2022/04/01 13:03:53;;;;;;;110.55;99.90;;;5.80;87.90;;;;;;5032531;28;20053;-74
2022/04/01 13:06:23;;;;;;;110.10;99.28;;;5.90;87.90;;;;;;5016350;28;20046;-74